Archiv-/Tagesdaten

--Timestamp---	Temp	Chill	HIndex	Humid	Dewpt	 Wind 	HiWind	WindDir	Rain 	Barom	Solar	 ET  	 UV 
--------------	----	-----	------	-----	-----	------	------	-------	-----	-----	-----	-----	----
20100424 00:00	8.9	8.9	8.9	67	3.1	3	5	68	0.0	1014.6	0	0.025	0.0
20100424 00:05	9.1	9.1	9.1	67	3.3	0	3	68	0.0	1014.5	0	0.000	0.0
20100424 00:10	9.1	9.1	9.1	67	3.3	2	5	90	0.0	1014.5	0	0.000	0.0
20100424 00:15	9.1	9.1	9.1	67	3.3	2	5	90	0.0	1014.6	0	0.000	0.0
20100424 00:20	9.1	9.1	9.1	67	3.3	3	6	90	0.0	1014.6	0	0.000	0.0
20100424 00:25	9.1	9.1	9.1	68	3.5	2	5	112	0.0	1014.6	0	0.000	0.0
20100424 00:30	9.1	9.1	9.1	68	3.5	2	5	112	0.0	1014.6	0	0.000	0.0
20100424 00:35	9.0	9.0	9.0	68	3.4	0	3	112	0.0	1014.7	0	0.000	0.0
20100424 00:40	8.9	8.9	8.9	68	3.3	0	3	112	0.0	1014.7	0	0.000	0.0
20100424 00:45	8.7	8.7	8.7	69	3.4	0	5	112	0.0	1014.7	0	0.000	0.0
20100424 00:50	8.5	8.5	8.5	70	3.3	2	6	112	0.0	1014.9	0	0.000	0.0
20100424 00:55	8.4	8.4	8.4	71	3.4	3	8	112	0.0	1014.9	0	0.000	0.0
20100424 01:00	8.3	8.3	8.3	72	3.6	2	5	112	0.0	1014.9	0	0.025	0.0
20100424 01:05	8.2	8.2	8.2	71	3.2	0	5	112	0.0	1014.7	0	0.000	0.0
20100424 01:10	7.9	7.9	7.9	71	3.0	0	5	112	0.0	1014.8	0	0.000	0.0
20100424 01:15	7.6	7.6	7.6	72	2.8	2	8	112	0.0	1014.8	0	0.000	0.0
20100424 01:20	7.2	7.2	7.2	74	2.9	0	3	112	0.0	1014.8	0	0.000	0.0
20100424 01:25	6.9	6.9	6.9	76	3.0	0	5	112	0.0	1014.9	0	0.000	0.0
20100424 01:30	6.7	6.7	6.7	77	2.9	2	5	112	0.0	1015.0	0	0.000	0.0
20100424 01:35	6.4	6.4	6.4	78	2.9	0	5	112	0.0	1015.0	0	0.000	0.0
20100424 01:40	6.3	6.3	6.3	79	3.0	0	3	112	0.0	1015.0	0	0.000	0.0
20100424 01:45	6.2	6.2	6.2	80	3.0	2	6	112	0.0	1015.0	0	0.000	0.0
20100424 01:50	6.2	6.2	6.2	80	3.0	2	8	112	0.0	1014.9	0	0.000	0.0
20100424 01:55	6.3	6.3	6.3	82	3.5	5	14	112	0.0	1015.0	0	0.000	0.0
20100424 02:00	6.6	6.6	6.6	82	3.8	3	11	135	0.0	1015.0	0	0.025	0.0
20100424 02:05	6.8	6.8	6.8	81	3.8	3	10	135	0.0	1015.1	0	0.000	0.0
20100424 02:10	6.9	5.8	6.9	81	3.9	6	11	112	0.0	1014.9	0	0.000	0.0
20100424 02:15	7.1	7.1	7.1	81	4.0	5	11	135	0.0	1014.9	0	0.000	0.0
20100424 02:20	7.1	6.0	7.1	80	3.8	6	11	135	0.0	1014.9	0	0.000	0.0
20100424 02:25	7.1	7.1	7.1	80	3.8	5	10	135	0.0	1014.9	0	0.000	0.0
20100424 02:30	7.0	7.0	7.0	80	3.8	3	8	135	0.0	1015.0	0	0.000	0.0
20100424 02:35	6.9	6.9	6.9	80	3.7	2	5	135	0.0	1015.0	0	0.000	0.0
20100424 02:40	6.8	6.8	6.8	80	3.6	2	5	135	0.0	1015.3	0	0.000	0.0
20100424 02:45	6.6	6.6	6.6	80	3.4	0	5	135	0.0	1015.3	0	0.000	0.0
20100424 02:50	6.2	6.2	6.2	80	3.0	0	6	135	0.0	1015.3	0	0.000	0.0
20100424 02:55	5.9	5.9	5.9	81	2.9	5	6	135	0.0	1015.4	0	0.000	0.0
20100424 03:00	5.8	5.8	5.8	83	3.1	3	6	135	0.0	1015.4	0	0.025	0.0
20100424 03:05	5.8	5.8	5.8	83	3.1	3	5	135	0.0	1015.4	0	0.000	0.0
20100424 03:10	5.8	5.8	5.8	84	3.3	0	3	135	0.0	1015.4	0	0.000	0.0
20100424 03:15	5.8	5.8	5.8	84	3.3	0	0	-100000	0.0	1015.4	0	0.000	0.0
20100424 03:20	5.7	5.7	5.7	84	3.2	0	0	-100000	0.0	1015.4	0	0.000	0.0
20100424 03:25	5.7	5.7	5.7	84	3.2	0	0	-100000	0.0	1015.5	0	0.000	0.0
20100424 03:30	5.6	5.6	5.6	84	3.1	0	0	-100000	0.0	1015.5	0	0.000	0.0
20100424 03:35	5.4	5.4	5.4	84	3.0	0	0	-100000	0.0	1015.5	0	0.000	0.0
20100424 03:40	5.3	5.3	5.3	84	2.9	0	0	-100000	0.0	1015.5	0	0.000	0.0
20100424 03:45	5.2	5.2	5.2	84	2.7	0	2	135	0.0	1015.6	0	0.000	0.0
20100424 03:50	5.2	5.2	5.2	85	2.9	0	0	-100000	0.0	1015.8	0	0.000	0.0
20100424 03:55	5.1	5.1	5.1	85	2.7	0	2	135	0.0	1015.8	0	0.000	0.0
20100424 04:00	4.9	4.9	4.9	85	2.6	0	0	-100000	0.0	1015.7	0	0.000	0.0
20100424 04:05	4.9	4.9	4.9	85	2.6	0	0	-100000	0.0	1015.7	0	0.000	0.0
20100424 04:10	4.8	4.8	4.8	85	2.5	0	0	-100000	0.0	1015.7	0	0.000	0.0
20100424 04:15	4.7	4.7	4.7	85	2.4	0	0	-100000	0.0	1015.8	0	0.000	0.0
20100424 04:20	4.6	4.6	4.6	86	2.5	0	0	-100000	0.0	1015.8	0	0.000	0.0
20100424 04:25	4.6	4.6	4.6	86	2.4	2	3	135	0.0	1015.9	0	0.000	0.0
20100424 04:30	4.5	4.5	4.5	86	2.4	0	3	135	0.0	1016.0	0	0.000	0.0
20100424 04:35	4.5	4.5	4.5	87	2.5	0	3	135	0.0	1016.0	0	0.000	0.0
20100424 04:40	4.5	4.5	4.5	87	2.5	0	0	-100000	0.0	1016.1	0	0.000	0.0
20100424 04:45	4.4	4.4	4.4	87	2.5	0	3	135	0.0	1016.2	0	0.000	0.0
20100424 04:50	4.4	4.4	4.4	87	2.4	2	3	135	0.0	1016.2	0	0.000	0.0
20100424 04:55	4.3	4.3	4.3	87	2.4	0	0	-100000	0.0	1016.2	0	0.000	0.0
20100424 05:00	4.3	4.3	4.3	87	2.3	0	3	135	0.0	1016.3	0	0.000	0.0
20100424 05:05	4.2	4.2	4.2	87	2.3	0	2	135	0.0	1016.4	0	0.000	0.0
20100424 05:10	4.1	4.1	4.1	87	2.1	0	0	-100000	0.0	1016.4	0	0.000	0.0
20100424 05:15	4.1	4.1	4.1	88	2.2	0	0	-100000	0.0	1016.6	0	0.000	0.0
20100424 05:20	3.9	3.9	3.9	88	2.1	0	0	-100000	0.0	1016.5	0	0.000	0.0
20100424 05:25	3.9	3.9	3.9	88	2.1	0	0	-100000	0.0	1016.6	0	0.000	0.0
20100424 05:30	3.8	3.8	3.8	87	1.8	0	0	-100000	0.0	1016.7	0	0.000	0.0
20100424 05:35	3.7	3.7	3.7	88	1.9	0	0	-100000	0.0	1016.7	0	0.000	0.0
20100424 05:40	3.6	3.6	3.6	88	1.8	0	0	-100000	0.0	1016.7	0	0.000	0.0
20100424 05:45	3.6	3.6	3.6	88	1.8	0	0	-100000	0.0	1016.7	0	0.000	0.0
20100424 05:50	3.6	3.6	3.6	88	1.8	0	0	-100000	0.0	1016.7	0	0.000	0.0
20100424 05:55	3.5	3.5	3.5	88	1.7	0	0	-100000	0.0	1016.8	0	0.000	0.0
20100424 06:00	3.4	3.4	3.4	88	1.6	0	0	-100000	0.0	1016.8	0	0.000	0.0
20100424 06:05	3.3	3.3	3.3	88	1.5	0	2	135	0.0	1016.9	0	0.000	0.0
20100424 06:10	3.2	3.2	3.2	88	1.4	0	0	-100000	0.0	1017.0	2	0.000	0.0
20100424 06:15	3.2	3.2	3.2	89	1.6	2	5	135	0.0	1017.0	6	0.000	0.0
20100424 06:20	3.4	3.4	3.4	89	1.8	3	5	135	0.0	1017.0	10	0.000	0.0
20100424 06:25	3.6	3.6	3.6	90	2.1	0	3	135	0.0	1017.0	13	0.000	0.0
20100424 06:30	3.6	3.6	3.6	89	2.0	0	2	135	0.0	1017.1	16	0.000	0.0
20100424 06:35	3.6	3.6	3.6	89	2.0	0	2	90	0.0	1017.0	20	0.000	0.0
20100424 06:40	3.6	3.6	3.6	89	2.0	0	3	112	0.0	1017.0	23	0.000	0.0
20100424 06:45	3.6	3.6	3.6	89	1.9	0	0	-100000	0.0	1017.2	27	0.000	0.0
20100424 06:50	3.6	3.6	3.6	90	2.1	0	0	-100000	0.0	1017.2	31	0.000	0.0
20100424 06:55	3.6	3.6	3.6	90	2.1	0	2	112	0.0	1017.1	34	0.000	0.0
20100424 07:00	3.7	3.7	3.7	90	2.2	0	0	-100000	0.0	1017.3	38	0.000	0.0
20100424 07:05	3.8	3.8	3.8	90	2.3	0	2	158	0.0	1017.6	41	0.000	0.0
20100424 07:10	3.8	3.8	3.8	89	2.1	0	5	158	0.0	1017.7	45	0.000	0.0
20100424 07:15	3.6	3.6	3.6	89	2.0	0	2	158	0.0	1017.8	49	0.000	0.0
20100424 07:20	3.6	3.6	3.6	89	1.9	0	0	-100000	0.0	1017.8	53	0.000	0.0
20100424 07:25	3.6	3.6	3.6	89	2.0	0	0	-100000	0.0	1017.8	56	0.000	0.0
20100424 07:30	3.7	3.7	3.7	89	2.1	0	0	-100000	0.0	1017.9	102	0.000	0.0
20100424 07:35	3.9	3.9	3.9	90	2.4	0	0	-100000	0.0	1017.8	143	0.000	0.0
20100424 07:40	4.4	4.4	4.4	90	2.9	0	2	22	0.0	1017.7	158	0.000	0.0
20100424 07:45	4.9	4.9	4.9	90	3.4	0	3	22	0.0	1017.8	170	0.000	0.0
20100424 07:50	5.3	5.3	5.3	89	3.6	2	6	22	0.0	1017.9	185	0.000	0.0
20100424 07:55	5.7	5.7	5.7	89	4.1	2	6	22	0.0	1017.9	199	0.000	0.3
20100424 08:00	6.1	6.1	6.1	88	4.3	3	6	22	0.0	1017.9	212	0.051	0.5
20100424 08:05	6.3	6.3	6.3	86	4.2	2	5	22	0.0	1018.2	224	0.000	0.6
20100424 08:10	6.6	6.6	6.6	86	4.4	2	5	22	0.0	1018.1	232	0.000	0.6
20100424 08:15	6.8	6.8	6.8	85	4.5	3	6	22	0.0	1018.1	248	0.000	0.7
20100424 08:20	7.1	7.1	7.1	84	4.5	5	6	68	0.0	1018.1	260	0.000	0.7
20100424 08:25	7.2	7.2	7.2	84	4.7	3	5	45	0.0	1018.1	280	0.000	0.8
20100424 08:30	7.4	7.4	7.4	83	4.7	3	6	45	0.0	1018.1	296	0.000	0.9
20100424 08:35	7.7	7.7	7.7	83	5.0	3	6	45	0.0	1018.2	312	0.000	0.9
20100424 08:40	7.8	7.8	7.8	81	4.8	3	6	68	0.0	1018.2	323	0.000	1.0
20100424 08:45	8.2	8.2	8.2	81	5.1	2	3	68	0.0	1018.1	336	0.000	1.1
20100424 08:50	8.5	8.5	8.5	79	5.1	3	10	112	0.0	1018.1	361	0.000	1.2
20100424 08:55	8.8	8.8	8.8	78	5.2	5	8	112	0.0	1018.1	374	0.000	1.3
20100424 09:00	9.1	9.1	9.1	77	5.2	5	8	112	0.0	1018.1	383	0.127	1.3
20100424 09:05	9.3	9.3	9.3	76	5.3	3	8	112	0.0	1018.3	397	0.000	1.4
20100424 09:10	9.4	9.4	9.4	76	5.4	5	10	68	0.0	1018.2	412	0.000	1.5
20100424 09:15	9.4	9.4	9.4	75	5.2	3	6	68	0.0	1018.3	421	0.000	1.6
20100424 09:20	9.4	9.4	9.4	75	5.2	5	11	68	0.0	1018.4	337	0.000	1.6
20100424 09:25	9.4	8.7	9.4	73	4.8	6	11	68	0.0	1018.3	86	0.000	1.4
20100424 09:30	9.6	8.9	9.6	73	5.0	6	10	68	0.0	1018.3	86	0.000	1.5
20100424 09:35	9.6	9.6	9.6	75	5.4	5	10	68	0.0	1018.3	89	0.000	1.5
20100424 09:40	9.7	9.1	9.7	74	5.3	6	11	22	0.0	1018.3	90	0.000	1.6
20100424 09:45	10.0	10.0	10.0	74	5.6	5	11	22	0.0	1018.4	90	0.000	1.6
20100424 09:50	10.2	10.2	10.2	74	5.7	8	16	22	0.0	1018.4	88	0.000	1.7
20100424 09:55	10.4	10.4	10.4	70	5.2	8	11	90	0.0	1018.3	88	0.000	1.8
20100424 10:00	10.7	10.7	10.7	71	5.7	6	11	68	0.0	1018.3	89	0.102	1.8
20100424 10:05	10.9	10.9	10.9	69	5.5	8	14	68	0.0	1018.3	92	0.000	1.9
20100424 10:10	11.2	11.2	11.2	67	5.3	10	18	68	0.0	1018.4	92	0.000	2.0
20100424 10:15	11.4	11.4	11.4	64	4.9	10	21	90	0.0	1018.5	91	0.000	2.0
20100424 10:20	11.6	11.6	11.6	63	4.8	8	16	22	0.0	1018.6	91	0.000	2.1
20100424 10:25	11.8	11.8	11.8	62	4.8	11	19	45	0.0	1018.5	97	0.000	2.2
20100424 10:30	12.0	12.0	12.0	58	4.0	11	21	68	0.0	1018.5	622	0.000	2.3
20100424 10:35	12.3	12.3	12.3	57	4.0	11	19	68	0.0	1018.5	633	0.000	3.4
20100424 10:40	12.3	12.3	12.3	56	3.8	13	21	68	0.0	1018.5	645	0.000	3.6
20100424 10:45	12.5	12.5	12.5	53	3.2	14	21	68	0.0	1018.6	658	0.000	3.7
20100424 10:50	12.6	12.6	12.6	52	3.0	14	23	68	0.0	1018.6	669	0.000	3.8
20100424 10:55	12.8	12.8	12.8	51	2.9	11	18	90	0.0	1018.6	681	0.000	4.0
20100424 11:00	12.9	12.9	12.9	50	2.7	13	21	68	0.0	1018.6	693	0.254	4.1
20100424 11:05	13.1	13.1	13.1	50	2.9	13	23	68	0.0	1018.7	702	0.000	4.2
20100424 11:10	13.2	13.2	13.2	48	2.4	14	23	68	0.0	1018.5	708	0.000	4.3
20100424 11:15	13.2	13.2	13.2	49	2.7	16	24	68	0.0	1018.5	714	0.000	4.4
20100424 11:20	13.4	13.4	13.4	50	3.2	13	23	68	0.0	1018.5	725	0.000	4.5
20100424 11:25	13.5	13.5	13.5	50	3.3	11	23	68	0.0	1018.6	734	0.000	4.7
20100424 11:30	13.6	13.6	13.6	49	3.1	11	23	68	0.0	1018.5	741	0.000	4.8
20100424 11:35	13.8	13.8	13.8	47	2.7	13	23	68	0.0	1018.4	749	0.000	4.9
20100424 11:40	14.0	14.0	14.0	50	3.7	10	19	68	0.0	1018.5	757	0.000	5.0
20100424 11:45	14.2	14.2	14.2	52	4.5	10	18	45	0.0	1018.4	763	0.000	5.1
20100424 11:50	14.4	14.4	14.4	50	4.1	6	11	112	0.0	1018.3	767	0.000	5.2
20100424 11:55	14.7	14.7	14.7	47	3.5	10	19	68	0.0	1018.3	779	0.000	5.4
20100424 12:00	14.6	14.6	14.6	50	4.3	10	18	68	0.0	1018.2	775	0.432	5.4
20100424 12:05	14.8	14.8	14.8	49	4.2	10	14	68	0.0	1018.3	791	0.000	5.6
20100424 12:10	15.0	15.0	15.0	49	4.4	10	19	68	0.0	1018.3	792	0.000	5.7
20100424 12:15	15.0	15.0	15.0	49	4.4	10	18	68	0.0	1018.3	792	0.000	5.7
20100424 12:20	15.0	15.0	15.0	49	4.4	8	18	68	0.0	1018.3	798	0.000	5.9
20100424 12:25	15.1	15.1	15.1	46	3.5	10	18	90	0.0	1018.2	798	0.000	5.9
20100424 12:30	15.2	15.2	15.2	48	4.3	8	18	90	0.0	1018.2	803	0.000	6.0
20100424 12:35	15.3	15.3	15.3	48	4.3	13	23	68	0.0	1018.1	803	0.000	6.0
20100424 12:40	15.4	15.4	15.4	47	4.2	11	19	68	0.0	1018.1	808	0.000	6.2
20100424 12:45	15.8	15.8	15.8	49	5.1	10	18	68	0.0	1018.0	808	0.000	6.1
20100424 12:50	15.9	15.9	15.9	47	4.6	8	21	68	0.0	1018.0	809	0.000	6.2
20100424 12:55	15.9	15.9	15.9	47	4.6	13	23	45	0.0	1018.0	810	0.000	6.2
20100424 13:00	15.8	15.8	15.8	46	4.2	13	23	45	0.0	1017.9	805	0.483	6.2
20100424 13:05	15.8	15.8	15.8	46	4.2	11	23	68	0.0	1018.2	814	0.000	6.2
20100424 13:10	16.2	16.2	16.2	44	3.9	14	26	68	0.0	1018.2	813	0.000	6.3
20100424 13:15	16.2	16.2	16.2	44	4.0	13	21	68	0.0	1018.2	818	0.000	6.3
20100424 13:20	16.2	16.2	16.2	44	4.0	13	21	68	0.0	1018.1	816	0.000	6.3
20100424 13:25	16.3	16.3	16.3	43	3.7	13	19	45	0.0	1018.1	816	0.000	6.2
20100424 13:30	16.3	16.3	16.3	43	3.7	14	23	68	0.0	1018.1	804	0.000	6.2
20100424 13:35	16.4	16.4	16.4	42	3.4	13	23	68	0.0	1018.0	812	0.000	6.2
20100424 13:40	16.4	16.4	16.4	42	3.5	10	19	68	0.0	1017.9	815	0.000	6.2
20100424 13:45	16.4	16.4	16.4	43	3.8	13	19	68	0.0	1018.0	808	0.000	6.2
20100424 13:50	16.8	16.8	16.8	41	3.5	11	24	90	0.0	1018.0	804	0.000	6.1
20100424 13:55	16.9	16.9	16.9	40	3.2	13	21	68	0.0	1018.0	804	0.000	6.0
20100424 14:00	16.9	16.9	16.9	41	3.6	8	18	68	0.0	1018.0	801	0.533	6.0
20100424 14:05	17.1	17.1	17.1	42	4.1	10	19	68	0.0	1018.1	799	0.000	5.9
20100424 14:10	17.3	17.3	17.3	39	3.2	10	19	90	0.0	1018.1	800	0.000	5.9
20100424 14:15	17.7	17.7	17.7	41	4.3	8	18	135	0.0	1018.0	795	0.000	5.8
20100424 14:20	17.6	17.6	17.6	40	3.8	11	21	68	0.0	1018.0	785	0.000	5.8
20100424 14:25	17.5	17.5	17.5	38	3.0	11	18	68	0.0	1018.1	781	0.000	5.7
20100424 14:30	17.6	17.6	17.6	38	3.1	10	19	45	0.0	1018.0	769	0.000	5.6
20100424 14:35	17.4	17.4	17.4	40	3.6	16	23	45	0.0	1018.1	766	0.000	5.5
20100424 14:40	17.4	17.4	17.4	41	4.0	10	19	45	0.0	1018.1	757	0.000	5.4
20100424 14:45	17.6	17.6	17.6	40	3.8	13	24	68	0.0	1018.0	747	0.000	5.3
20100424 14:50	17.6	17.6	17.6	40	3.8	13	19	68	0.0	1018.0	745	0.000	5.2
20100424 14:55	17.7	17.7	17.7	37	2.8	13	19	68	0.0	1018.1	751	0.000	5.1
20100424 15:00	17.7	17.7	17.7	38	3.2	10	21	68	0.0	1018.1	744	0.508	5.0
20100424 15:05	17.8	17.8	17.8	39	3.6	8	16	68	0.0	1018.1	738	0.000	4.9
20100424 15:10	18.1	18.1	18.1	37	3.1	11	21	68	0.0	1018.1	729	0.000	4.9
20100424 15:15	18.1	18.1	18.1	36	2.7	10	21	68	0.0	1017.9	721	0.000	4.7
20100424 15:20	18.1	18.1	18.1	35	2.4	6	18	90	0.0	1018.0	717	0.000	4.6
20100424 15:25	18.2	18.2	18.2	33	1.6	13	23	45	0.0	1018.0	708	0.000	4.5
20100424 15:30	18.3	18.3	18.3	36	3.0	8	18	68	0.0	1018.0	700	0.000	4.4
20100424 15:35	18.3	18.3	18.3	32	1.3	11	21	68	0.0	1017.9	694	0.000	4.3
20100424 15:40	18.4	18.4	18.4	33	1.9	11	24	68	0.0	1017.9	668	0.000	4.1
20100424 15:45	18.4	18.4	18.4	33	1.9	10	16	112	0.0	1017.8	654	0.000	4.0
20100424 15:50	18.6	18.6	18.6	31	1.1	11	21	68	0.0	1017.8	647	0.000	3.9
20100424 15:55	18.5	18.5	18.5	32	1.5	8	19	68	0.0	1017.8	656	0.000	3.8
20100424 16:00	18.6	18.6	18.6	31	1.1	10	18	68	0.0	1017.8	650	0.483	3.7
20100424 16:05	18.7	18.7	18.7	30	0.7	10	23	68	0.0	1017.8	638	0.000	3.6
20100424 16:10	18.8	18.8	18.8	33	2.2	10	21	68	0.0	1017.8	625	0.000	3.4
20100424 16:15	18.8	18.8	18.8	33	2.2	10	18	68	0.0	1017.7	606	0.000	3.2
20100424 16:20	18.8	18.8	18.8	31	1.3	11	23	68	0.0	1017.7	595	0.000	3.1
20100424 16:25	18.9	18.9	18.9	30	1.0	10	26	90	0.0	1017.7	586	0.000	3.0
20100424 16:30	19.0	19.0	19.0	29	0.6	10	18	90	0.0	1017.7	574	0.000	2.9
20100424 16:35	18.9	18.9	18.9	28	0.0	10	18	68	0.0	1017.7	565	0.000	2.8
20100424 16:40	18.8	18.8	18.8	30	0.9	8	14	68	0.0	1017.7	551	0.000	2.6
20100424 16:45	18.8	18.8	18.8	29	0.4	10	18	68	0.0	1017.8	541	0.000	2.5
20100424 16:50	18.8	18.8	18.8	27	-0.6	11	21	68	0.0	1017.8	526	0.000	2.4
20100424 16:55	18.8	18.8	18.8	28	-0.1	10	23	90	0.0	1017.9	517	0.000	2.3
20100424 17:00	18.8	18.8	18.8	28	-0.1	13	24	68	0.0	1017.8	504	0.432	2.2
20100424 17:05	18.8	18.8	18.8	27	-0.6	8	18	90	0.0	1017.9	488	0.000	2.1
20100424 17:10	19.1	19.1	19.1	29	0.6	8	18	68	0.0	1017.9	476	0.000	1.9
20100424 17:15	19.2	19.2	19.2	28	0.3	8	16	135	0.0	1017.9	463	0.000	1.8
20100424 17:20	19.3	19.3	19.3	28	0.3	8	18	135	0.0	1017.9	444	0.000	1.7
20100424 17:25	19.3	19.3	19.3	27	-0.2	10	19	68	0.0	1017.9	429	0.000	1.6
20100424 17:30	19.0	19.0	19.0	27	-0.4	10	23	68	0.0	1018.0	418	0.000	1.5
20100424 17:35	18.8	18.8	18.8	27	-0.6	11	18	68	0.0	1018.0	406	0.000	1.4
20100424 17:40	18.9	18.9	18.9	27	-0.5	5	11	90	0.0	1018.0	391	0.000	1.3
20100424 17:45	19.0	19.0	19.0	27	-0.4	11	18	68	0.0	1018.0	379	0.000	1.3
20100424 17:50	18.9	18.9	18.9	26	-1.0	10	19	90	0.0	1018.0	363	0.000	1.2
20100424 17:55	18.9	18.9	18.9	28	0.0	11	19	68	0.0	1018.0	350	0.000	1.1
20100424 18:00	18.9	18.9	18.9	28	-0.0	10	19	68	0.0	1018.0	335	0.330	1.0
20100424 18:05	18.8	18.8	18.8	28	-0.1	6	14	90	0.0	1018.0	323	0.000	0.9
20100424 18:10	18.8	18.8	18.8	28	-0.1	11	21	68	0.0	1018.1	308	0.000	0.9
20100424 18:15	18.7	18.7	18.7	29	0.3	8	19	90	0.0	1018.0	296	0.000	0.8
20100424 18:20	18.6	18.6	18.6	30	0.7	8	14	68	0.0	1018.0	280	0.000	0.7
20100424 18:25	18.6	18.6	18.6	31	1.1	6	14	68	0.0	1018.0	260	0.000	0.6
20100424 18:30	18.5	18.5	18.5	30	0.6	10	19	68	0.0	1018.0	242	0.000	0.6
20100424 18:35	18.3	18.3	18.3	32	1.3	10	19	68	0.0	1018.1	226	0.000	0.5
20100424 18:40	18.2	18.2	18.2	31	0.8	10	18	68	0.0	1018.1	209	0.000	0.5
20100424 18:45	18.1	18.1	18.1	30	0.3	10	16	68	0.0	1018.1	192	0.000	0.2
20100424 18:50	18.0	18.0	18.0	31	0.6	8	16	68	0.0	1018.1	174	0.000	0.0
20100424 18:55	17.8	17.8	17.8	30	0.0	10	16	68	0.0	1018.2	64	0.000	0.0
20100424 19:00	17.7	17.7	17.7	31	0.4	10	18	68	0.0	1018.3	48	0.203	0.0
20100424 19:05	17.6	17.6	17.6	33	1.1	10	18	68	0.0	1018.0	47	0.000	0.0
20100424 19:10	17.4	17.4	17.4	33	0.9	8	16	68	0.0	1018.1	46	0.000	0.0
20100424 19:15	17.3	17.3	17.3	33	0.9	8	14	68	0.0	1018.1	43	0.000	0.0
20100424 19:20	17.2	17.2	17.2	34	1.2	8	11	68	0.0	1018.2	41	0.000	0.0
20100424 19:25	17.0	17.0	17.0	35	1.4	6	10	68	0.0	1018.2	39	0.000	0.0
20100424 19:30	16.9	16.9	16.9	35	1.3	6	14	68	0.0	1018.3	36	0.000	0.0
20100424 19:35	16.7	16.7	16.7	35	1.2	6	10	68	0.0	1018.3	32	0.000	0.0
20100424 19:40	16.5	16.5	16.5	36	1.4	3	8	68	0.0	1018.4	28	0.000	0.0
20100424 19:45	16.3	16.3	16.3	37	1.6	5	10	68	0.0	1018.4	25	0.000	0.0
20100424 19:50	16.0	16.0	16.0	37	1.3	5	8	68	0.0	1018.5	21	0.000	0.0
20100424 19:55	15.8	15.8	15.8	37	1.2	5	8	68	0.0	1018.5	18	0.000	0.0
20100424 20:00	15.7	15.7	15.7	37	1.0	3	8	68	0.0	1018.6	14	0.076	0.0
20100424 20:05	15.5	15.5	15.5	38	1.2	2	6	68	0.0	1018.4	11	0.000	0.0
20100424 20:10	15.3	15.3	15.3	38	1.1	2	6	68	0.0	1018.3	8	0.000	0.0
20100424 20:15	15.0	15.0	15.0	39	1.2	2	5	90	0.0	1018.5	5	0.000	0.0
20100424 20:20	15.0	15.0	15.0	40	1.5	2	5	90	0.0	1018.6	0	0.000	0.0
20100424 20:25	14.6	14.6	14.6	41	1.5	0	2	90	0.0	1018.7	0	0.000	0.0
20100424 20:30	14.3	14.3	14.3	42	1.5	0	3	90	0.0	1018.8	0	0.000	0.0
20100424 20:35	14.0	14.0	14.0	43	1.6	0	3	90	0.0	1019.0	0	0.000	0.0
20100424 20:40	13.8	13.8	13.8	43	1.4	0	2	90	0.0	1019.0	0	0.000	0.0
20100424 20:45	13.6	13.6	13.6	43	1.2	0	2	90	0.0	1019.1	0	0.000	0.0
20100424 20:50	13.3	13.3	13.3	44	1.3	0	3	90	0.0	1019.1	0	0.000	0.0
20100424 20:55	13.2	13.2	13.2	45	1.5	0	2	90	0.0	1019.2	0	0.000	0.0
20100424 21:00	12.9	12.9	12.9	45	1.3	0	2	90	0.0	1019.4	0	0.025	0.0
20100424 21:05	12.7	12.7	12.7	46	1.4	0	2	90	0.0	1019.3	0	0.000	0.0
20100424 21:10	12.6	12.6	12.6	45	0.9	0	2	90	0.0	1019.3	0	0.000	0.0
20100424 21:15	12.3	12.3	12.3	47	1.3	0	2	90	0.0	1019.6	0	0.000	0.0
20100424 21:20	12.2	12.2	12.2	47	1.2	0	3	90	0.0	1019.5	0	0.000	0.0
20100424 21:25	12.1	12.1	12.1	48	1.4	0	2	90	0.0	1019.6	0	0.000	0.0
20100424 21:30	11.9	11.9	11.9	48	1.2	0	0	-100000	0.0	1019.7	0	0.000	0.0
20100424 21:35	11.7	11.7	11.7	49	1.4	0	2	90	0.0	1019.7	0	0.000	0.0
20100424 21:40	11.6	11.6	11.6	50	1.5	0	2	90	0.0	1019.7	0	0.000	0.0
20100424 21:45	11.4	11.4	11.4	50	1.3	0	2	90	0.0	1019.8	0	0.000	0.0
20100424 21:50	11.2	11.2	11.2	51	1.4	0	3	90	0.0	1019.9	0	0.000	0.0
20100424 21:55	11.0	11.0	11.0	52	1.5	0	3	90	0.0	1019.9	0	0.000	0.0
20100424 22:00	10.8	10.8	10.8	53	1.6	0	2	90	0.0	1019.8	0	0.025	0.0
20100424 22:05	10.6	10.6	10.6	53	1.4	0	2	90	0.0	1019.7	0	0.000	0.0
20100424 22:10	10.4	10.4	10.4	54	1.5	0	0	-100000	0.0	1019.8	0	0.000	0.0
20100424 22:15	10.3	10.3	10.3	55	1.6	0	0	-100000	0.0	1019.8	0	0.000	0.0
20100424 22:20	10.1	10.1	10.1	57	1.9	0	2	90	0.0	1020.0	0	0.000	0.0
20100424 22:25	9.9	9.9	9.9	57	1.8	0	0	-100000	0.0	1020.0	0	0.000	0.0
20100424 22:30	9.8	9.8	9.8	58	1.9	0	0	-100000	0.0	1020.1	0	0.000	0.0
20100424 22:35	9.7	9.7	9.7	58	1.8	0	0	-100000	0.0	1020.1	0	0.000	0.0
20100424 22:40	9.6	9.6	9.6	59	1.9	0	0	-100000	0.0	1020.1	0	0.000	0.0
20100424 22:45	9.5	9.5	9.5	59	1.9	0	0	-100000	0.0	1020.1	0	0.000	0.0
20100424 22:50	9.4	9.4	9.4	59	1.8	0	0	-100000	0.0	1020.1	0	0.000	0.0
20100424 22:55	9.3	9.3	9.3	59	1.7	0	2	90	0.0	1020.1	0	0.000	0.0
20100424 23:00	9.2	9.2	9.2	60	1.8	0	3	90	0.0	1020.1	0	0.025	0.0
20100424 23:05	9.1	9.1	9.1	60	1.7	0	2	90	0.0	1020.0	0	0.000	0.0
20100424 23:10	8.9	8.9	8.9	60	1.6	0	0	-100000	0.0	1020.0	0	0.000	0.0
20100424 23:15	8.8	8.8	8.8	61	1.7	0	2	90	0.0	1020.0	0	0.000	0.0
20100424 23:20	8.7	8.7	8.7	61	1.6	0	5	90	0.0	1020.0	0	0.000	0.0
20100424 23:25	8.6	8.6	8.6	61	1.5	0	5	90	0.0	1020.0	0	0.000	0.0
20100424 23:30	8.6	8.6	8.6	62	1.7	2	5	90	0.0	1020.2	0	0.000	0.0
20100424 23:35	8.4	8.4	8.4	63	1.8	0	3	90	0.0	1020.2	0	0.000	0.0
20100424 23:40	8.3	8.3	8.3	63	1.7	0	2	90	0.0	1020.3	0	0.000	0.0
20100424 23:45	8.3	8.3	8.3	64	1.9	0	2	90	0.0	1020.3	0	0.000	0.0
20100424 23:50	8.3	8.3	8.3	64	1.9	3	5	90	0.0	1020.3	0	0.000	0.0
20100424 23:55	8.3	8.3	8.3	64	1.9	2	5	90	0.0	1020.3	0	0.000	0.0



Please note the license to use and transfer of this data:
http://creativecommons.org/licenses/by-nc-sa/3.0/deed.en

Bitte beachten sie die Lizenz zur Verwertung und Weitergabe der Daten:
http://creativecommons.org/licenses/by-nc-sa/3.0/deed.de

zurück zur Übersicht der Archivdaten (Monats und Tagesdaten)

Cookies helfen bei der Bereitstellung von Inhalten. Durch die Nutzung dieser Seiten erklärst du dich damit einverstanden, dass Cookies auf deinem Rechner gespeichert werden. Weitere Information